createdAt,value
2022-11-27T00:01:28.726Z,2.06
2022-11-27T00:03:58.810Z,1.8
2022-11-27T00:08:58.781Z,1.9
2022-11-27T00:16:29.061Z,2.12
2022-11-27T00:18:58.892Z,2.19
2022-11-27T00:21:28.904Z,2.2
2022-11-27T00:28:58.969Z,2.25
2022-11-27T00:31:29.064Z,2.08
2022-11-27T00:36:29.045Z,2.07
2022-11-27T00:38:59.060Z,2.09
2022-11-27T00:41:29.088Z,2.57
2022-11-27T00:43:59.111Z,2.62
2022-11-27T00:46:29.441Z,2.76
2022-11-27T00:51:29.201Z,2.51
2022-11-27T00:53:59.229Z,2.42
2022-11-27T00:56:29.252Z,3.01
2022-11-27T01:01:29.336Z,2.87
2022-11-27T01:03:59.307Z,3.13
2022-11-27T01:08:59.374Z,3.51
2022-11-27T01:18:59.449Z,2.72
2022-11-27T01:21:29.451Z,2.87
2022-11-27T01:23:59.473Z,2.95
2022-11-27T01:26:29.635Z,2.87
2022-11-27T01:28:59.533Z,3.23
2022-11-27T01:31:29.736Z,3.05
2022-11-27T01:41:36.995Z,2.82
2022-11-27T01:44:06.993Z,3.21
2022-11-27T01:46:37.073Z,2.8
2022-11-27T01:49:07.033Z,3.47
2022-11-27T01:56:37.129Z,3.74
2022-11-27T01:59:07.163Z,3.72
2022-11-27T02:01:37.241Z,3.64
2022-11-27T02:04:07.193Z,3.1
2022-11-27T02:09:07.233Z,2.84
2022-11-27T02:11:37.255Z,3.04
2022-11-27T02:16:37.345Z,3.26
2022-11-27T02:19:07.315Z,3.24
2022-11-27T02:21:37.351Z,2.52
2022-11-27T02:24:07.421Z,2.67
2022-11-27T02:29:07.420Z,3.04
2022-11-27T02:34:07.494Z,3.15
2022-11-27T02:36:37.502Z,3.08
2022-11-27T02:41:37.542Z,3.84
2022-11-27T02:44:07.549Z,3.17
2022-11-27T02:46:37.650Z,2.9
2022-11-27T02:49:07.625Z,3.2
2022-11-27T02:51:37.640Z,2.99
2022-11-27T02:54:07.661Z,2.89
2022-11-27T02:56:37.692Z,2.51
2022-11-27T02:59:07.717Z,3.41
2022-11-27T03:01:37.845Z,2.78
2022-11-27T03:04:07.768Z,2.1
2022-11-27T03:09:07.810Z,2
2022-11-27T03:11:37.807Z,2.27
2022-11-27T03:14:07.847Z,2.8
2022-11-27T03:16:37.871Z,2.89
2022-11-27T03:19:07.891Z,3.08
2022-11-27T03:21:37.920Z,2.88
2022-11-27T03:24:07.946Z,3.99
2022-11-27T03:26:37.984Z,3.14
2022-11-27T03:29:07.984Z,2.58
2022-11-27T03:31:38.167Z,3.16
2022-11-27T03:34:08.018Z,2.81
2022-11-27T03:36:38.041Z,3.05
2022-11-27T03:39:08.088Z,3.67
2022-11-27T03:46:38.177Z,2.54
2022-11-27T03:49:08.189Z,2.26
2022-11-27T03:54:08.248Z,2.38
2022-11-27T03:56:38.240Z,1.98
2022-11-27T03:59:08.327Z,1.95
2022-11-27T04:01:38.445Z,2.43
2022-11-27T04:09:08.374Z,2.41
2022-11-27T04:11:38.388Z,2.22
2022-11-27T04:14:08.403Z,1.88
2022-11-27T04:24:08.504Z,1.76
2022-11-27T04:26:38.518Z,1.48
2022-11-27T04:29:08.553Z,1.76
2022-11-27T04:31:38.617Z,1.76
2022-11-27T04:34:08.614Z,1.92
2022-11-27T04:36:39.649Z,1.92
2022-11-27T04:41:38.665Z,1.96
2022-11-27T04:44:08.698Z,1.67
2022-11-27T04:46:38.860Z,1.71
2022-11-27T04:49:08.730Z,2.06
2022-11-27T04:54:08.781Z,2.13
2022-11-27T04:56:38.796Z,1.94
2022-11-27T04:59:08.829Z,1.87
2022-11-27T05:01:38.876Z,1.8
2022-11-27T05:06:38.896Z,2.37
2022-11-27T05:09:08.912Z,2.37
2022-11-27T05:11:38.955Z,2.46
2022-11-27T05:14:08.978Z,1.93
2022-11-27T05:19:08.999Z,1.66
2022-11-27T05:21:39.053Z,1.61
2022-11-27T05:24:09.045Z,2.03
2022-11-27T05:26:39.095Z,2.14
2022-11-27T05:29:09.113Z,1.76
2022-11-27T05:31:39.233Z,1.74
2022-11-27T05:34:09.148Z,1.81
2022-11-27T05:41:39.228Z,1.64
2022-11-27T05:44:09.257Z,1.82
2022-11-27T05:46:39.321Z,2
2022-11-27T05:49:09.282Z,1.89
2022-11-27T05:51:39.337Z,2.12
2022-11-27T05:54:09.346Z,1.86
2022-11-27T05:56:39.375Z,1.73
2022-11-27T05:59:09.400Z,2.12
2022-11-27T06:01:39.512Z,1.99
2022-11-27T06:04:09.450Z,1.93
2022-11-27T06:09:12.771Z,1.69
2022-11-27T06:14:09.553Z,1.61
2022-11-27T06:19:09.588Z,2.42
2022-11-27T06:21:39.614Z,2.29
2022-11-27T06:31:39.774Z,2.06
2022-11-27T06:34:09.734Z,1.72
2022-11-27T06:36:39.747Z,1.67
2022-11-27T06:41:39.778Z,2.39
2022-11-27T06:44:09.827Z,2.28
2022-11-27T06:49:09.890Z,2.06
2022-11-27T06:51:39.894Z,2.06
2022-11-27T06:54:09.906Z,2.42
2022-11-27T06:59:09.956Z,1.82
2022-11-27T07:01:40.083Z,1.66
2022-11-27T07:04:09.996Z,1.48
2022-11-27T07:06:40.074Z,1.42
2022-11-27T07:09:10.060Z,1.72
2022-11-27T07:11:40.088Z,1.71
2022-11-27T07:14:10.116Z,1.85
2022-11-27T07:21:40.188Z,1.99
2022-11-27T07:24:10.212Z,2.56
2022-11-27T07:29:10.260Z,2.74
2022-11-27T07:34:15.965Z,2.34
2022-11-27T07:36:40.321Z,2.54
2022-11-27T07:39:10.313Z,2.15
2022-11-27T07:44:10.383Z,2.26
2022-11-27T07:46:40.411Z,2.45
2022-11-27T07:49:10.609Z,2.43
2022-11-27T07:51:40.428Z,2.58
2022-11-27T07:54:10.474Z,3.1
2022-11-27T07:56:40.523Z,3.78
2022-11-27T07:59:10.540Z,3.54
2022-11-27T08:04:10.626Z,3.38
2022-11-27T08:06:40.599Z,3.49
2022-11-27T08:09:10.629Z,3.04
2022-11-27T08:11:40.647Z,3.05
2022-11-27T08:14:10.658Z,4.09
2022-11-27T08:16:40.787Z,3.65
2022-11-27T08:19:10.707Z,3.09
2022-11-27T08:21:40.739Z,4.47
2022-11-27T08:26:40.778Z,3.36
2022-11-27T08:29:10.780Z,3.3
2022-11-27T08:31:40.885Z,3.81
2022-11-27T08:34:10.879Z,4.16
2022-11-27T08:36:40.875Z,4.64
2022-11-27T08:39:10.892Z,4.8
2022-11-27T08:41:40.931Z,3.19
2022-11-27T08:44:10.930Z,3.92
2022-11-27T08:46:40.968Z,4.15
2022-11-27T08:51:40.994Z,4.13
2022-11-27T08:54:11.017Z,3.86
2022-11-27T08:56:41.074Z,3.85
2022-11-27T08:59:11.090Z,4.02
2022-11-27T09:01:41.122Z,4.32
2022-11-27T09:06:41.156Z,4.21
2022-11-27T09:09:11.176Z,4.02
2022-11-27T09:11:41.204Z,3.78
2022-11-27T09:19:11.266Z,4.12
2022-11-27T09:24:11.323Z,3.97
2022-11-27T09:31:41.485Z,3.75
2022-11-27T09:34:11.416Z,3.78
2022-11-27T09:39:11.466Z,3.31
2022-11-27T09:41:41.458Z,3.57
2022-11-27T09:44:11.489Z,3.9
2022-11-27T09:46:41.524Z,4.17
2022-11-27T09:49:11.554Z,4.21
2022-11-27T09:56:41.599Z,4.29
2022-11-27T10:04:11.681Z,4.01
2022-11-27T10:06:41.746Z,4.4
2022-11-27T10:09:11.736Z,3.79
2022-11-27T10:11:41.750Z,4.09
2022-11-27T10:16:44.770Z,4.14
2022-11-27T10:19:11.838Z,4.32
2022-11-27T10:24:11.865Z,4.42
2022-11-27T10:26:41.896Z,4.32
2022-11-27T10:29:11.917Z,3.46
2022-11-27T10:39:12.026Z,4.15
2022-11-27T10:41:49.259Z,3.65
2022-11-27T10:49:12.116Z,5.3
2022-11-27T10:51:42.138Z,5.25
2022-11-27T10:56:42.185Z,3.85
2022-11-27T11:04:24.691Z,4.11
2022-11-27T11:09:12.331Z,3.81
2022-11-27T11:14:12.336Z,3.94
2022-11-27T11:19:12.398Z,3.17
2022-11-27T11:24:12.447Z,4.46
2022-11-27T11:26:42.470Z,5.08
2022-11-27T11:29:12.515Z,5.29
2022-11-27T11:31:42.585Z,4.37
2022-11-27T11:34:12.536Z,4.7
2022-11-27T11:36:42.562Z,3.9
2022-11-27T11:39:12.588Z,3.69
2022-11-27T11:41:42.591Z,3.51
2022-11-27T11:44:12.641Z,3.9
2022-11-27T11:46:42.668Z,3.8
2022-11-27T11:51:42.690Z,4.16
2022-11-27T11:54:12.758Z,3.59
2022-11-27T11:56:42.729Z,4.1
2022-11-27T11:59:12.750Z,4.51
2022-11-27T12:01:42.786Z,3.77
2022-11-27T12:04:12.871Z,3.29
2022-11-27T12:06:42.842Z,2.78
2022-11-27T12:09:12.847Z,3.4
2022-11-27T12:11:42.880Z,3
2022-11-27T12:14:12.894Z,3.18
2022-11-27T12:16:42.997Z,4.05
2022-11-27T12:21:42.967Z,3.54
2022-11-27T12:24:13.000Z,3.41
2022-11-27T12:31:43.164Z,2.99
2022-11-27T12:34:13.106Z,3.08
2022-11-27T12:36:43.101Z,3
2022-11-27T12:39:13.139Z,3.37
2022-11-27T12:41:43.168Z,4.31
2022-11-27T12:44:13.194Z,4.16
2022-11-27T12:46:43.219Z,3.77
2022-11-27T12:51:43.246Z,3.9
2022-11-27T12:54:13.315Z,3.45
2022-11-27T12:56:43.324Z,2.93
2022-11-27T12:59:13.331Z,3.05
2022-11-27T13:01:43.398Z,3.07
2022-11-27T13:04:13.359Z,3.32
2022-11-27T13:06:43.428Z,3.67
2022-11-27T13:11:43.454Z,4.23
2022-11-27T13:14:13.456Z,3.73
2022-11-27T13:16:50.588Z,3.88
2022-11-27T13:19:13.529Z,3.71
2022-11-27T13:21:43.556Z,3.54
2022-11-27T13:24:13.564Z,3.62
2022-11-27T13:26:43.578Z,3.89
2022-11-27T13:29:13.623Z,4.03
2022-11-27T13:31:43.678Z,3.51
2022-11-27T13:34:13.680Z,3.04
2022-11-27T13:39:13.700Z,3.01
2022-11-27T13:41:43.716Z,3.15
2022-11-27T13:44:13.763Z,3.27
2022-11-27T13:46:43.777Z,3.39
2022-11-27T13:49:13.804Z,3.26
2022-11-27T13:51:43.832Z,2.65
2022-11-27T13:54:13.830Z,2.91
2022-11-27T13:56:43.876Z,3.65
2022-11-27T13:59:13.894Z,3.04
2022-11-27T14:01:43.913Z,3.07
2022-11-27T14:04:13.952Z,2.91
2022-11-27T14:06:43.969Z,2.79
2022-11-27T14:09:13.973Z,3.59
2022-11-27T14:11:44.000Z,3.27
2022-11-27T14:14:14.033Z,3.58
2022-11-27T14:16:44.113Z,3.2
2022-11-27T14:19:14.072Z,2.95
2022-11-27T14:21:44.117Z,2.98
2022-11-27T14:24:14.139Z,2.93
2022-11-27T14:26:44.148Z,2.74
2022-11-27T14:29:14.254Z,2.81
2022-11-27T14:31:44.280Z,2.66
2022-11-27T14:36:44.247Z,2.94
2022-11-27T14:41:44.320Z,2.42
2022-11-27T14:44:14.313Z,2.76
2022-11-27T14:46:44.415Z,3.23
2022-11-27T14:49:14.350Z,3.45
2022-11-27T14:54:14.419Z,4.57
2022-11-27T14:56:44.429Z,3.48
2022-11-27T14:59:14.469Z,3.74
2022-11-27T15:01:44.525Z,3.01
2022-11-27T15:04:21.528Z,3.18
2022-11-27T15:06:44.523Z,3.58
2022-11-27T15:09:31.394Z,3.61
2022-11-27T15:11:55.862Z,3.89
2022-11-27T15:14:14.594Z,3.22
2022-11-27T15:16:44.675Z,2.89
2022-11-27T15:19:14.639Z,2.99
2022-11-27T15:21:44.663Z,3.36
2022-11-27T15:24:14.690Z,3.23
2022-11-27T15:26:44.716Z,2.75
2022-11-27T15:29:14.736Z,2.85
2022-11-27T15:31:44.789Z,3.34
2022-11-27T15:34:14.784Z,2.97
2022-11-27T15:36:44.817Z,2.69
2022-11-27T15:39:14.823Z,2.91
2022-11-27T15:41:44.839Z,3.36
2022-11-27T15:44:14.898Z,3.11
2022-11-27T15:46:44.912Z,3.24
2022-11-27T15:51:44.934Z,2.99
2022-11-27T15:54:14.956Z,3.33
2022-11-27T15:56:44.994Z,3.81
2022-11-27T15:59:15.012Z,3.32
2022-11-27T16:01:45.134Z,2.77
2022-11-27T16:06:45.081Z,2.76
2022-11-27T16:09:15.114Z,2.94
2022-11-27T16:11:45.143Z,3.19
2022-11-27T16:14:15.172Z,3.19
2022-11-27T16:16:45.297Z,3.16
2022-11-27T16:19:15.208Z,3.48
2022-11-27T16:21:45.226Z,3.72
2022-11-27T16:24:15.248Z,2.93
2022-11-27T16:26:45.279Z,2.95
2022-11-27T16:29:15.321Z,3.76
2022-11-27T16:31:45.464Z,3.92
2022-11-27T16:34:15.327Z,4.6
2022-11-27T16:39:15.415Z,4.12
2022-11-27T16:41:45.417Z,4.25
2022-11-27T16:46:45.446Z,3.68
2022-11-27T16:49:15.484Z,3.87
2022-11-27T16:51:45.517Z,4.24
2022-11-27T16:54:15.528Z,4.18
2022-11-27T16:56:45.535Z,3.85
2022-11-27T16:59:15.597Z,4.14
2022-11-27T17:04:15.633Z,4.17
2022-11-27T17:06:45.658Z,4.67
2022-11-27T17:11:45.693Z,3.77
2022-11-27T17:16:45.850Z,3.71
2022-11-27T17:19:15.775Z,4.72
2022-11-27T17:21:45.804Z,4.4
2022-11-27T17:24:16.212Z,4.09
2022-11-27T17:26:45.858Z,4.17
2022-11-27T17:29:15.861Z,4.29
2022-11-27T17:34:15.894Z,3.77
2022-11-27T17:39:15.961Z,3.49
2022-11-27T17:41:45.997Z,4.48
2022-11-27T17:44:16.002Z,4.51
2022-11-27T17:46:46.016Z,4.11
2022-11-27T17:49:16.052Z,3.71
2022-11-27T17:51:46.068Z,3.98
2022-11-27T17:54:16.192Z,3.99
2022-11-27T17:56:46.121Z,4.01
2022-11-27T17:59:16.147Z,4.47
2022-11-27T18:01:46.228Z,4
2022-11-27T18:04:16.188Z,3.95
2022-11-27T18:11:46.256Z,4.24
2022-11-27T18:14:16.280Z,5.16
2022-11-27T18:16:46.416Z,4.68
2022-11-27T18:19:16.354Z,4.02
2022-11-27T18:21:46.356Z,3.56
2022-11-27T18:24:24.944Z,3.62
2022-11-27T18:27:07.364Z,4.32
2022-11-27T18:29:16.428Z,3.52
2022-11-27T18:31:46.466Z,4.03
2022-11-27T18:34:16.465Z,4.46
2022-11-27T18:36:46.495Z,3.83
2022-11-27T18:39:16.550Z,3.06
2022-11-27T18:41:46.538Z,2.73
2022-11-27T18:44:16.587Z,3.26
2022-11-27T18:46:46.582Z,3.38
2022-11-27T18:49:16.623Z,3.62
2022-11-27T18:51:46.615Z,3.57
2022-11-27T18:54:16.666Z,3.52
2022-11-27T18:56:46.685Z,3.8
2022-11-27T18:59:16.703Z,4.01
2022-11-27T19:04:16.739Z,3.61
2022-11-27T19:06:46.804Z,3.46
2022-11-27T19:09:16.791Z,2.98
2022-11-27T19:11:46.833Z,2.65
2022-11-27T19:14:16.848Z,2.5
2022-11-27T19:16:46.998Z,2.71
2022-11-27T19:20:04.381Z,2.89
2022-11-27T19:21:46.923Z,2.82
2022-11-27T19:24:16.937Z,2.83
2022-11-27T19:26:46.965Z,2.63
2022-11-27T19:29:16.992Z,4.72
2022-11-27T19:31:47.036Z,4.12
2022-11-27T19:39:17.057Z,3.16
2022-11-27T19:41:47.091Z,2.73
2022-11-27T19:44:17.129Z,3.32
2022-11-27T19:46:47.156Z,3.68
2022-11-27T19:49:17.181Z,3.4
2022-11-27T19:51:47.187Z,3.59
2022-11-27T19:54:17.219Z,3.27
2022-11-27T19:56:47.223Z,3.19
2022-11-27T19:59:21.391Z,3.42
2022-11-27T20:01:47.328Z,2.94
2022-11-27T20:04:17.304Z,2.66
2022-11-27T20:06:47.335Z,3.07
2022-11-27T20:09:17.350Z,3.16
2022-11-27T20:14:17.409Z,4.4
2022-11-27T20:16:47.535Z,3.87
2022-11-27T20:19:17.455Z,3.56
2022-11-27T20:21:47.481Z,3.47
2022-11-27T20:24:17.511Z,3.94
2022-11-27T20:26:47.609Z,4.12
2022-11-27T20:29:17.560Z,4.64
2022-11-27T20:31:47.573Z,4.1
2022-11-27T20:34:17.585Z,4.6
2022-11-27T20:36:47.612Z,4.55
2022-11-27T20:41:47.681Z,4.88
2022-11-27T20:44:17.668Z,3.84
2022-11-27T20:46:47.709Z,3.65
2022-11-27T20:49:17.737Z,3.69
2022-11-27T20:51:47.761Z,3.29
2022-11-27T20:56:47.807Z,3.92
2022-11-27T20:59:17.825Z,3.56
2022-11-27T21:01:47.956Z,3.94
2022-11-27T21:04:17.885Z,4.59
2022-11-27T21:06:47.897Z,4.27
2022-11-27T21:09:17.924Z,4.36
2022-11-27T21:11:47.952Z,3.76
2022-11-27T21:14:17.966Z,4.04
2022-11-27T21:16:48.108Z,3.46
2022-11-27T21:19:18.030Z,3.81
2022-11-27T21:21:48.035Z,3.84
2022-11-27T21:24:18.079Z,3.23
2022-11-27T21:26:48.267Z,3.18
2022-11-27T21:29:18.118Z,3.84
2022-11-27T21:31:48.172Z,3.33
2022-11-27T21:34:18.151Z,4.29
2022-11-27T21:39:18.213Z,3.29
2022-11-27T21:41:48.237Z,3.61
2022-11-27T21:44:18.258Z,3.29
2022-11-27T21:49:18.290Z,3.28
2022-11-27T21:51:48.325Z,3.66
2022-11-27T21:54:18.349Z,4.35
2022-11-27T21:56:48.387Z,4.13
2022-11-27T21:59:18.396Z,4.37
2022-11-27T22:01:48.519Z,3.97
2022-11-27T22:04:18.431Z,3.47
2022-11-27T22:06:48.476Z,3.49
2022-11-27T22:09:18.505Z,3.6
2022-11-27T22:11:48.520Z,4.34
2022-11-27T22:14:18.547Z,4.53
2022-11-27T22:16:48.628Z,3.6
2022-11-27T22:19:18.593Z,3.3
2022-11-27T22:24:19.861Z,3.51
2022-11-27T22:26:48.745Z,3.85
2022-11-27T22:29:18.667Z,3.55
2022-11-27T22:34:18.729Z,3.42
2022-11-27T22:36:48.741Z,3.54
2022-11-27T22:39:18.762Z,3.81
2022-11-27T22:44:18.822Z,2.94
2022-11-27T22:46:48.855Z,3.55
2022-11-27T22:49:18.881Z,4.05
2022-11-27T22:51:48.874Z,3.73
2022-11-27T22:56:48.931Z,3.65
2022-11-27T22:59:32.710Z,3.4
2022-11-27T23:04:18.989Z,4.14
2022-11-27T23:09:19.070Z,3.92
2022-11-27T23:11:49.073Z,3.72
2022-11-27T23:14:19.109Z,2.91
2022-11-27T23:21:49.178Z,4.11
2022-11-27T23:24:19.212Z,4
2022-11-27T23:26:49.215Z,3.26
2022-11-27T23:31:49.375Z,4.12
2022-11-27T23:34:19.296Z,4.32
2022-11-27T23:36:49.333Z,4.87
2022-11-27T23:39:19.385Z,4.97
2022-11-27T23:41:49.363Z,4.09
2022-11-27T23:44:19.385Z,3.94
2022-11-27T23:46:49.422Z,4.31
2022-11-27T23:49:19.454Z,3.91
2022-11-27T23:51:49.452Z,3.17
2022-11-27T23:56:49.498Z,3.44
2022-11-27T23:59:19.522Z,3.52
